createdAt,value
2023-02-02T00:01:47.637Z,1.05
2023-02-02T00:04:18.608Z,0.98
2023-02-02T00:06:46.134Z,0.82
2023-02-02T00:09:15.405Z,0.80
2023-02-02T00:11:44.591Z,0.60
2023-02-02T00:14:11.627Z,0.95
2023-02-02T00:16:41.360Z,0.68
2023-02-02T00:19:11.472Z,1.00
2023-02-02T00:21:38.413Z,1.38
2023-02-02T00:24:08.235Z,0.75
2023-02-02T00:26:36.073Z,0.85
2023-02-02T00:29:03.695Z,0.70
2023-02-02T00:31:30.358Z,0.43
2023-02-02T00:33:56.974Z,1.42
2023-02-02T00:36:23.715Z,1.17
2023-02-02T00:38:51.320Z,1.02
2023-02-02T00:41:17.873Z,1.00
2023-02-02T00:43:44.776Z,0.70
2023-02-02T00:46:17.023Z,0.57
2023-02-02T00:48:43.601Z,0.82
2023-02-02T00:51:10.578Z,1.20
2023-02-02T00:53:37.173Z,0.40
2023-02-02T00:56:04.009Z,0.60
2023-02-02T00:58:30.586Z,1.35
2023-02-02T01:00:57.229Z,0.63
2023-02-02T01:03:23.780Z,0.73
2023-02-02T01:05:52.052Z,0.63
2023-02-02T01:08:18.800Z,0.93
2023-02-02T01:10:45.401Z,0.80
2023-02-02T01:13:11.951Z,0.32
2023-02-02T01:15:38.481Z,0.43
2023-02-02T01:18:05.106Z,1.58
2023-02-02T01:20:32.357Z,0.90
2023-02-02T01:22:58.914Z,0.68
2023-02-02T01:25:25.885Z,0.68
2023-02-02T01:27:52.597Z,0.68
2023-02-02T01:30:19.201Z,0.95
2023-02-02T01:32:45.844Z,0.85
2023-02-02T01:35:12.540Z,1.02
2023-02-02T01:37:39.376Z,0.90
2023-02-02T01:40:07.174Z,0.77
2023-02-02T01:42:33.778Z,0.70
2023-02-02T01:47:51.913Z,0.65
2023-02-02T01:50:21.589Z,1.02
2023-02-02T01:52:51.180Z,1.00
2023-02-02T01:55:23.911Z,0.57
2023-02-02T01:57:57.434Z,0.60
2023-02-02T02:00:27.228Z,1.27
2023-02-02T02:03:00.200Z,1.20
2023-02-02T02:05:32.009Z,1.27
2023-02-02T02:08:08.261Z,0.45
2023-02-02T02:10:35.011Z,1.23
2023-02-02T02:13:01.707Z,0.90
2023-02-02T02:15:55.960Z,0.68
2023-02-02T02:18:34.247Z,0.60
2023-02-02T02:27:03.801Z,1.48
2023-02-02T02:30:10.215Z,0.50
2023-02-02T02:35:42.768Z,1.15
2023-02-02T02:38:49.119Z,1.88
2023-02-02T02:41:22.724Z,1.30
2023-02-02T02:43:56.753Z,1.88
2023-02-02T02:46:24.035Z,1.55
2023-02-02T02:48:50.588Z,1.70
2023-02-02T02:54:21.199Z,1.65
2023-02-02T03:07:29.531Z,0.52
2023-02-02T03:09:58.108Z,0.65
2023-02-02T03:12:24.849Z,1.17
2023-02-02T03:14:51.521Z,1.00
2023-02-02T03:17:18.051Z,0.70
2023-02-02T03:19:44.580Z,0.68
2023-02-02T03:22:11.110Z,1.15
2023-02-02T03:24:37.830Z,1.45
2023-02-02T03:27:04.662Z,1.08
2023-02-02T03:29:31.280Z,0.60
2023-02-02T03:31:57.920Z,0.95
2023-02-02T03:34:24.497Z,1.17
2023-02-02T03:36:51.124Z,0.85
2023-02-02T03:39:17.681Z,0.60
2023-02-02T03:41:44.198Z,0.80
2023-02-02T03:44:10.767Z,0.93
2023-02-02T03:46:37.332Z,0.60
2023-02-02T03:49:04.041Z,0.90
2023-02-02T03:51:30.573Z,0.90
2023-02-02T03:53:57.105Z,0.73
2023-02-02T03:56:23.661Z,0.73
2023-02-02T03:58:50.226Z,0.77
2023-02-02T04:01:16.893Z,1.17
2023-02-02T04:03:43.651Z,0.68
2023-02-02T04:06:10.282Z,0.43
2023-02-02T04:08:36.945Z,0.77
2023-02-02T04:11:03.638Z,1.80
2023-02-02T04:13:30.906Z,0.45
2023-02-02T04:16:00.631Z,0.98
2023-02-02T04:18:27.372Z,1.40
2023-02-02T04:21:02.558Z,0.90
2023-02-02T04:23:30.040Z,0.68
2023-02-02T04:25:57.634Z,1.20
2023-02-02T04:28:25.171Z,0.98
2023-02-02T04:30:53.167Z,0.65
2023-02-02T04:33:21.360Z,1.17
2023-02-02T04:35:47.943Z,0.45
2023-02-02T04:38:14.745Z,0.73
2023-02-02T04:40:43.013Z,1.00
2023-02-02T04:43:10.039Z,1.40
2023-02-02T04:45:36.816Z,1.10
2023-02-02T04:48:04.254Z,0.82
2023-02-02T04:50:31.197Z,0.75
2023-02-02T04:52:58.341Z,0.57
2023-02-02T04:55:25.238Z,0.75
2023-02-02T04:57:51.985Z,0.73
2023-02-02T05:00:18.962Z,0.43
2023-02-02T05:02:45.696Z,1.10
2023-02-02T05:05:14.299Z,0.60
2023-02-02T05:07:41.344Z,0.80
2023-02-02T05:10:09.885Z,0.65
2023-02-02T05:12:36.509Z,0.50
2023-02-02T05:15:05.492Z,1.00
2023-02-02T05:17:32.676Z,0.80
2023-02-02T05:19:59.183Z,1.27
2023-02-02T05:22:25.960Z,0.98
2023-02-02T05:24:52.548Z,0.98
2023-02-02T05:27:19.111Z,0.55
2023-02-02T05:29:47.804Z,2.17
2023-02-02T05:32:14.388Z,0.88
2023-02-02T05:34:40.929Z,0.68
2023-02-02T05:37:07.500Z,0.80
2023-02-02T05:39:34.120Z,0.70
2023-02-02T05:42:00.676Z,1.50
2023-02-02T05:44:27.225Z,0.50
2023-02-02T05:46:53.760Z,0.52
2023-02-02T05:49:20.312Z,1.13
2023-02-02T05:51:50.793Z,0.70
2023-02-02T05:54:20.701Z,0.65
2023-02-02T05:56:48.747Z,1.13
2023-02-02T05:59:15.384Z,0.75
2023-02-02T06:01:41.950Z,1.17
2023-02-02T06:04:08.649Z,1.00
2023-02-02T06:06:35.792Z,1.27
2023-02-02T06:09:02.566Z,0.55
2023-02-02T06:11:29.260Z,1.92
2023-02-02T06:13:56.511Z,1.15
2023-02-02T06:16:23.535Z,1.13
2023-02-02T06:18:50.139Z,0.75
2023-02-02T06:21:17.317Z,0.93
2023-02-02T06:23:45.879Z,1.08
2023-02-02T06:26:14.066Z,1.02
2023-02-02T06:28:40.992Z,0.93
2023-02-02T06:31:09.985Z,0.85
2023-02-02T06:33:37.519Z,0.75
2023-02-02T06:36:06.422Z,1.00
2023-02-02T06:38:33.807Z,0.63
2023-02-02T06:41:01.540Z,0.77
2023-02-02T06:43:29.067Z,0.68
2023-02-02T06:45:57.861Z,0.70
2023-02-02T06:48:24.985Z,0.82
2023-02-02T06:50:51.681Z,0.30
2023-02-02T06:53:23.009Z,1.08
2023-02-02T06:56:02.348Z,0.55
2023-02-02T06:58:30.508Z,0.95
2023-02-02T07:01:04.340Z,0.75
2023-02-02T07:03:31.076Z,0.75
2023-02-02T07:05:57.870Z,0.95
2023-02-02T07:08:24.546Z,0.75
2023-02-02T07:11:14.156Z,0.73
2023-02-02T07:13:37.930Z,0.85
2023-02-02T07:16:05.785Z,0.80
2023-02-02T07:18:32.593Z,0.63
2023-02-02T07:21:00.583Z,0.65
2023-02-02T07:23:28.411Z,0.68
2023-02-02T07:28:38.617Z,0.55
2023-02-02T07:31:20.826Z,0.93
2023-02-02T07:33:48.707Z,0.55
2023-02-02T07:36:20.104Z,0.60
2023-02-02T07:38:48.650Z,0.40
2023-02-02T07:41:16.237Z,1.10
2023-02-02T07:43:43.500Z,0.68
2023-02-02T07:46:12.856Z,0.40
2023-02-02T07:48:40.730Z,0.45
2023-02-02T07:51:11.221Z,0.50
2023-02-02T07:53:38.162Z,0.52
2023-02-02T07:56:10.568Z,0.38
2023-02-02T07:58:37.402Z,1.50
2023-02-02T08:01:05.731Z,0.60
2023-02-02T08:03:33.177Z,0.75
2023-02-02T08:06:00.116Z,0.60
2023-02-02T08:08:27.142Z,0.70
2023-02-02T08:10:54.485Z,0.63
2023-02-02T08:13:21.114Z,0.82
2023-02-02T08:15:47.808Z,0.43
2023-02-02T08:18:14.544Z,0.60
2023-02-02T08:20:41.080Z,0.88
2023-02-02T08:23:13.488Z,0.47
2023-02-02T08:25:40.348Z,0.80
2023-02-02T08:28:06.922Z,0.50
2023-02-02T08:30:35.375Z,0.70
2023-02-02T08:33:01.987Z,0.55
2023-02-02T08:35:28.585Z,0.38
2023-02-02T08:37:55.183Z,0.22
2023-02-02T08:40:21.793Z,0.65
2023-02-02T08:42:54.469Z,0.22
2023-02-02T08:46:02.282Z,0.35
2023-02-02T08:48:12.066Z,0.30
2023-02-02T08:50:39.470Z,0.52
2023-02-02T08:53:06.157Z,0.20
2023-02-02T08:55:32.782Z,0.45
2023-02-02T08:57:59.319Z,0.57
2023-02-02T09:00:25.941Z,0.47
2023-02-02T09:02:52.532Z,0.65
2023-02-02T09:05:19.119Z,0.77
2023-02-02T09:07:46.606Z,0.40
2023-02-02T09:10:13.424Z,0.40
2023-02-02T09:12:39.933Z,0.52
2023-02-02T09:15:06.864Z,0.70
2023-02-02T09:17:33.468Z,0.68
2023-02-02T09:20:00.034Z,0.30
2023-02-02T09:22:28.772Z,0.47
2023-02-02T09:24:55.435Z,0.50
2023-02-02T09:27:22.168Z,0.38
2023-02-02T09:29:48.910Z,0.45
2023-02-02T09:32:15.934Z,0.30
2023-02-02T09:34:42.461Z,0.47
2023-02-02T09:37:09.012Z,0.57
2023-02-02T09:39:35.570Z,0.57
2023-02-02T09:52:42.572Z,1.05
2023-02-02T09:57:53.154Z,2.17
2023-02-02T10:03:11.153Z,1.02
2023-02-02T10:05:50.429Z,0.60
2023-02-02T10:08:34.612Z,0.65
2023-02-02T10:11:08.489Z,0.90
2023-02-02T10:13:39.271Z,0.45
2023-02-02T10:16:17.175Z,0.50
2023-02-02T10:23:59.614Z,0.82
2023-02-02T10:32:33.473Z,1.95
2023-02-02T10:45:56.946Z,0.75
2023-02-02T10:48:32.656Z,0.68
2023-02-02T10:51:02.692Z,0.70
2023-02-02T10:56:03.570Z,1.00
2023-02-02T10:58:44.427Z,0.50
2023-02-02T11:01:11.908Z,0.77
2023-02-02T11:03:40.145Z,0.70
2023-02-02T11:06:28.453Z,0.73
2023-02-02T11:09:05.413Z,0.57
2023-02-02T11:11:52.366Z,1.00
2023-02-02T11:14:30.376Z,0.90
2023-02-02T11:17:02.539Z,0.30
2023-02-02T11:19:32.641Z,0.30
2023-02-02T11:22:02.127Z,0.65
2023-02-02T11:24:45.302Z,0.70
2023-02-02T11:27:17.953Z,0.93
2023-02-02T11:29:48.158Z,0.90
2023-02-02T11:32:33.103Z,0.63
2023-02-02T11:37:51.515Z,1.05
2023-02-02T11:40:29.129Z,0.82
2023-02-02T11:42:58.104Z,0.32
2023-02-02T11:45:34.355Z,0.80
2023-02-02T11:48:06.918Z,1.00
2023-02-02T11:50:34.257Z,0.68
2023-02-02T11:53:00.994Z,0.57
2023-02-02T11:55:30.626Z,0.60
2023-02-02T12:00:59.418Z,1.00
2023-02-02T12:06:33.607Z,0.65
2023-02-02T12:09:02.464Z,0.88
2023-02-02T12:25:00.990Z,1.83
2023-02-02T12:30:27.514Z,0.60
2023-02-02T12:44:00.692Z,1.35
2023-02-02T12:54:48.226Z,1.85
2023-02-02T13:11:32.720Z,1.23
2023-02-02T13:14:08.550Z,2.13
2023-02-02T13:16:38.157Z,1.27
2023-02-02T13:19:10.408Z,1.25
2023-02-02T13:21:39.826Z,0.50
2023-02-02T13:24:12.182Z,1.35
2023-02-02T13:26:42.964Z,0.20
2023-02-02T13:32:15.201Z,0.40
2023-02-02T13:34:48.047Z,0.47
2023-02-02T13:37:39.919Z,0.50
2023-02-02T14:03:02.746Z,0.50
2023-02-02T14:05:33.207Z,0.45
2023-02-02T14:10:44.298Z,0.38
2023-02-02T14:15:55.590Z,1.33
2023-02-02T14:38:15.387Z,0.40
2023-02-02T14:43:48.838Z,0.88
2023-02-02T14:51:32.773Z,0.65
2023-02-02T14:54:02.551Z,0.50
2023-02-02T14:59:27.024Z,0.32
2023-02-02T15:02:01.103Z,0.47
2023-02-02T15:04:29.527Z,0.77
2023-02-02T15:06:56.713Z,0.95
2023-02-02T15:14:41.858Z,0.43
2023-02-02T15:20:21.219Z,0.52
2023-02-02T15:31:07.212Z,1.58
2023-02-02T15:33:39.633Z,1.58
2023-02-02T15:36:12.267Z,1.95
2023-02-02T15:38:41.818Z,1.83
2023-02-02T15:41:20.224Z,1.30
2023-02-02T15:43:47.055Z,1.50
2023-02-02T15:46:24.177Z,1.83
2023-02-02T15:49:34.277Z,1.48
2023-02-02T15:52:10.766Z,1.33
2023-02-02T15:54:38.334Z,1.63
2023-02-02T15:57:23.939Z,1.58
2023-02-02T15:59:50.654Z,1.15
2023-02-02T16:04:55.903Z,0.30
2023-02-02T16:07:28.790Z,0.65
2023-02-02T16:09:57.549Z,0.60
2023-02-02T16:12:24.523Z,0.88
2023-02-02T16:14:53.605Z,0.90
2023-02-02T16:17:23.004Z,2.45
2023-02-02T16:19:51.401Z,1.85
2023-02-02T16:22:23.907Z,1.83
2023-02-02T16:24:54.192Z,0.75
2023-02-02T16:27:24.453Z,1.20
2023-02-02T16:29:51.822Z,0.80
2023-02-02T16:32:38.780Z,1.02
2023-02-02T16:35:09.745Z,0.55
2023-02-02T16:37:36.588Z,2.45
2023-02-02T16:40:28.560Z,2.15
2023-02-02T16:43:19.862Z,2.10
2023-02-02T16:45:50.787Z,3.58
2023-02-02T16:48:39.249Z,1.10
2023-02-02T16:56:48.721Z,1.27
2023-02-02T16:59:24.857Z,2.63
2023-02-02T17:01:55.393Z,6.72
2023-02-02T17:04:29.287Z,2.75
2023-02-02T17:07:05.271Z,1.17
2023-02-02T17:09:37.350Z,1.35
2023-02-02T17:12:33.213Z,0.90
2023-02-02T17:15:22.858Z,1.30
2023-02-02T17:17:49.676Z,2.22
2023-02-02T17:20:17.832Z,3.70
2023-02-02T17:22:47.617Z,3.90
2023-02-02T17:25:17.108Z,3.35
2023-02-02T17:27:45.175Z,2.47
2023-02-02T17:30:18.504Z,2.40
2023-02-02T17:32:45.604Z,1.10
2023-02-02T17:35:17.979Z,1.50
2023-02-02T17:37:44.578Z,0.63
2023-02-02T17:40:16.034Z,1.58
2023-02-02T17:42:45.049Z,1.27
2023-02-02T17:45:20.200Z,2.20
2023-02-02T17:47:46.798Z,2.33
2023-02-02T17:50:13.461Z,1.67
2023-02-02T17:52:40.108Z,1.50
2023-02-02T17:55:14.329Z,2.92
2023-02-02T17:57:41.138Z,1.17
2023-02-02T18:00:08.384Z,3.28
2023-02-02T18:02:35.120Z,0.65
2023-02-02T18:05:03.150Z,0.90
2023-02-02T18:07:29.702Z,1.45
2023-02-02T18:09:56.256Z,1.13
2023-02-02T18:12:23.523Z,1.65
2023-02-02T18:14:50.094Z,1.02
2023-02-02T18:17:16.626Z,0.80
2023-02-02T18:19:45.183Z,0.77
2023-02-02T18:22:13.775Z,0.88
2023-02-02T18:24:41.088Z,0.40
2023-02-02T18:27:08.423Z,0.60
2023-02-02T18:29:35.367Z,0.82
2023-02-02T18:32:02.352Z,2.60
2023-02-02T18:34:30.544Z,1.42
2023-02-02T18:36:57.103Z,0.80
2023-02-02T18:39:23.718Z,0.73
2023-02-02T18:41:50.347Z,1.05
2023-02-02T18:44:17.251Z,1.58
2023-02-02T18:46:43.805Z,0.77
2023-02-02T18:49:10.986Z,1.00
2023-02-02T18:51:37.605Z,0.95
2023-02-02T18:54:04.239Z,0.98
2023-02-02T18:56:30.874Z,0.30
2023-02-02T18:58:58.188Z,1.05
2023-02-02T19:01:26.000Z,0.65
2023-02-02T19:03:57.280Z,0.50
2023-02-02T19:06:44.776Z,0.30
2023-02-02T19:09:13.741Z,0.90
2023-02-02T19:11:43.891Z,1.33
2023-02-02T19:16:39.416Z,1.10
2023-02-02T19:19:21.941Z,0.47
2023-02-02T19:21:48.814Z,0.80
2023-02-02T19:24:15.809Z,1.27
2023-02-02T19:26:46.934Z,0.73
2023-02-02T19:29:18.762Z,0.80
2023-02-02T19:31:45.914Z,1.52
2023-02-02T19:34:16.995Z,0.95
2023-02-02T19:36:46.879Z,1.67
2023-02-02T19:39:18.612Z,2.85
2023-02-02T19:41:45.286Z,0.98
2023-02-02T19:44:17.379Z,1.45
2023-02-02T19:46:46.572Z,1.98
2023-02-02T19:49:22.012Z,1.10
2023-02-02T19:51:53.612Z,1.25
2023-02-02T19:54:39.373Z,1.55
2023-02-02T19:59:45.439Z,1.92
2023-02-02T20:02:41.025Z,1.67
2023-02-02T20:07:51.979Z,1.35
2023-02-02T20:10:27.428Z,1.63
2023-02-02T20:12:54.976Z,1.80
2023-02-02T20:18:01.425Z,3.13
2023-02-02T20:20:33.558Z,2.72
2023-02-02T20:23:00.505Z,3.05
2023-02-02T20:25:29.263Z,2.78
2023-02-02T20:27:58.936Z,2.75
2023-02-02T20:30:30.877Z,6.78
2023-02-02T20:32:59.196Z,8.07
2023-02-02T20:35:35.933Z,6.18
2023-02-02T20:38:13.258Z,5.35
2023-02-02T20:40:39.831Z,5.03
2023-02-02T20:43:06.422Z,5.10
2023-02-02T20:45:33.047Z,4.32
2023-02-02T20:47:59.576Z,4.05
2023-02-02T20:50:26.332Z,3.17
2023-02-02T20:52:54.056Z,3.50
2023-02-02T20:55:20.827Z,2.80
2023-02-02T20:57:47.423Z,3.13
2023-02-02T21:00:17.166Z,3.45
2023-02-02T21:02:43.808Z,4.03
2023-02-02T21:05:10.397Z,4.35
2023-02-02T21:07:37.139Z,2.88
2023-02-02T21:10:05.114Z,3.13
2023-02-02T21:12:31.733Z,2.63
2023-02-02T21:14:58.361Z,3.05
2023-02-02T21:17:24.996Z,3.17
2023-02-02T21:19:51.567Z,2.30
2023-02-02T21:22:18.129Z,2.53
2023-02-02T21:24:44.654Z,2.17
2023-02-02T21:27:11.347Z,2.55
2023-02-02T21:29:38.482Z,1.92
2023-02-02T21:32:06.057Z,2.35
2023-02-02T21:34:33.183Z,1.58
2023-02-02T21:36:59.962Z,2.05
2023-02-02T21:42:15.639Z,1.60
2023-02-02T21:47:32.360Z,1.95
2023-02-02T21:50:19.273Z,2.03
2023-02-02T21:52:46.371Z,2.45
2023-02-02T21:58:22.255Z,2.28
2023-02-02T22:00:50.328Z,2.63
2023-02-02T22:06:17.890Z,1.08
2023-02-02T22:08:44.447Z,0.60
2023-02-02T22:11:24.351Z,1.10
2023-02-02T22:13:52.864Z,0.77
2023-02-02T22:16:20.889Z,0.65
2023-02-02T22:18:47.849Z,0.77
2023-02-02T22:21:18.801Z,0.70
2023-02-02T22:23:46.550Z,0.65
2023-02-02T22:26:29.313Z,1.15
2023-02-02T22:28:56.268Z,0.63
2023-02-02T22:31:22.930Z,0.47
2023-02-02T22:33:49.595Z,0.52
2023-02-02T22:36:16.161Z,0.82
2023-02-02T22:38:42.668Z,0.60
2023-02-02T22:41:09.650Z,0.60
2023-02-02T22:43:36.435Z,1.13
2023-02-02T22:46:03.135Z,0.73
2023-02-02T22:48:29.732Z,0.82
2023-02-02T22:50:56.266Z,0.98
2023-02-02T22:53:22.806Z,0.82
2023-02-02T22:55:56.304Z,0.63
2023-02-02T22:58:24.534Z,1.02
2023-02-02T23:00:51.452Z,0.60
2023-02-02T23:03:18.264Z,0.70
2023-02-02T23:05:44.897Z,1.05
2023-02-02T23:08:11.379Z,0.85
2023-02-02T23:10:38.266Z,0.70
2023-02-02T23:13:05.890Z,0.45
2023-02-02T23:15:32.972Z,0.73
2023-02-02T23:17:59.782Z,1.23
2023-02-02T23:20:27.756Z,2.30
2023-02-02T23:22:54.556Z,3.00
2023-02-02T23:25:22.089Z,3.35
2023-02-02T23:27:49.033Z,4.28
2023-02-02T23:30:15.917Z,5.53
2023-02-02T23:32:42.615Z,4.22
2023-02-02T23:35:11.012Z,2.67
2023-02-02T23:37:37.787Z,2.65
2023-02-02T23:40:05.039Z,3.55
2023-02-02T23:42:32.082Z,3.55
2023-02-02T23:44:58.625Z,2.63
2023-02-02T23:47:25.730Z,2.55
2023-02-02T23:49:52.534Z,2.45
2023-02-02T23:52:19.129Z,2.75
2023-02-02T23:54:45.848Z,2.63
2023-02-02T23:57:12.429Z,1.73
2023-02-02T23:59:38.939Z,1.50
